sensor_id;sensor_type;location;lat;lon;timestamp;temperature;humidity
23532;DHT22;11943;52.270;20.978;2022-07-21T00:01:23;20.10;99.90
23532;DHT22;11943;52.270;20.978;2022-07-21T00:03:49;20.10;99.90
23532;DHT22;11943;52.270;20.978;2022-07-21T00:06:14;20.10;99.90
23532;DHT22;11943;52.270;20.978;2022-07-21T00:08:40;20.10;99.90
23532;DHT22;11943;52.270;20.978;2022-07-21T00:11:06;20.00;99.90
23532;DHT22;11943;52.270;20.978;2022-07-21T00:13:31;20.00;99.90
23532;DHT22;11943;52.270;20.978;2022-07-21T00:15:57;20.00;99.90
23532;DHT22;11943;52.270;20.978;2022-07-21T00:18:23;20.00;99.90
23532;DHT22;11943;52.270;20.978;2022-07-21T00:20:49;20.00;99.90
23532;DHT22;11943;52.270;20.978;2022-07-21T00:23:16;20.00;99.90
23532;DHT22;11943;52.270;20.978;2022-07-21T00:25:42;19.90;99.90
23532;DHT22;11943;52.270;20.978;2022-07-21T00:28:08;19.90;99.90
23532;DHT22;11943;52.270;20.978;2022-07-21T00:30:34;19.90;99.90
23532;DHT22;11943;52.270;20.978;2022-07-21T00:33:00;19.80;99.90
23532;DHT22;11943;52.270;20.978;2022-07-21T00:35:26;19.80;99.90
23532;DHT22;11943;52.270;20.978;2022-07-21T00:37:52;19.80;99.90
23532;DHT22;11943;52.270;20.978;2022-07-21T00:40:17;19.70;99.90
23532;DHT22;11943;52.270;20.978;2022-07-21T00:42:44;19.70;99.90
23532;DHT22;11943;52.270;20.978;2022-07-21T00:45:10;19.70;99.90
23532;DHT22;11943;52.270;20.978;2022-07-21T00:47:37;19.60;99.90
23532;DHT22;11943;52.270;20.978;2022-07-21T00:50:06;19.60;99.90
23532;DHT22;11943;52.270;20.978;2022-07-21T00:52:32;19.60;99.90
23532;DHT22;11943;52.270;20.978;2022-07-21T00:54:58;19.50;99.90
23532;DHT22;11943;52.270;20.978;2022-07-21T00:57:24;19.50;99.90
23532;DHT22;11943;52.270;20.978;2022-07-21T00:59:50;19.60;99.90
23532;DHT22;11943;52.270;20.978;2022-07-21T01:02:15;19.60;99.90
23532;DHT22;11943;52.270;20.978;2022-07-21T01:04:41;19.60;99.90
23532;DHT22;11943;52.270;20.978;2022-07-21T01:07:07;19.60;99.90
23532;DHT22;11943;52.270;20.978;2022-07-21T01:09:34;19.50;99.90
23532;DHT22;11943;52.270;20.978;2022-07-21T01:12:00;19.60;99.90
23532;DHT22;11943;52.270;20.978;2022-07-21T01:14:27;19.70;99.90
23532;DHT22;11943;52.270;20.978;2022-07-21T01:16:53;19.80;99.90
23532;DHT22;11943;52.270;20.978;2022-07-21T01:19:18;19.70;99.90
23532;DHT22;11943;52.270;20.978;2022-07-21T01:21:46;19.80;99.90
23532;DHT22;11943;52.270;20.978;2022-07-21T01:24:12;19.70;99.90
23532;DHT22;11943;52.270;20.978;2022-07-21T01:26:43;19.70;99.90
23532;DHT22;11943;52.270;20.978;2022-07-21T01:29:09;19.60;99.90
23532;DHT22;11943;52.270;20.978;2022-07-21T01:31:36;19.60;99.90
23532;DHT22;11943;52.270;20.978;2022-07-21T01:34:01;19.50;99.90
23532;DHT22;11943;52.270;20.978;2022-07-21T01:36:27;19.50;99.90
23532;DHT22;11943;52.270;20.978;2022-07-21T01:38:53;19.40;99.90
23532;DHT22;11943;52.270;20.978;2022-07-21T01:41:37;19.40;99.90
23532;DHT22;11943;52.270;20.978;2022-07-21T01:44:06;19.40;99.90
23532;DHT22;11943;52.270;20.978;2022-07-21T01:46:35;19.40;99.90
23532;DHT22;11943;52.270;20.978;2022-07-21T01:49:02;19.40;99.90
23532;DHT22;11943;52.270;20.978;2022-07-21T01:51:27;19.40;99.90
23532;DHT22;11943;52.270;20.978;2022-07-21T01:53:53;19.40;99.90
23532;DHT22;11943;52.270;20.978;2022-07-21T01:56:21;19.40;99.90
23532;DHT22;11943;52.270;20.978;2022-07-21T01:58:47;19.40;99.90
23532;DHT22;11943;52.270;20.978;2022-07-21T02:01:18;19.40;99.90
23532;DHT22;11943;52.270;20.978;2022-07-21T02:03:45;19.40;99.90
23532;DHT22;11943;52.270;20.978;2022-07-21T02:06:11;19.40;99.90
23532;DHT22;11943;52.270;20.978;2022-07-21T02:08:37;19.30;99.90
23532;DHT22;11943;52.270;20.978;2022-07-21T02:11:05;19.30;99.90
23532;DHT22;11943;52.270;20.978;2022-07-21T02:13:31;19.40;99.90
23532;DHT22;11943;52.270;20.978;2022-07-21T02:15:57;19.40;99.90
23532;DHT22;11943;52.270;20.978;2022-07-21T02:18:22;19.40;99.90
23532;DHT22;11943;52.270;20.978;2022-07-21T02:20:48;19.40;99.90
23532;DHT22;11943;52.270;20.978;2022-07-21T02:23:19;19.40;99.90
23532;DHT22;11943;52.270;20.978;2022-07-21T02:25:44;19.40;99.90
23532;DHT22;11943;52.270;20.978;2022-07-21T02:28:10;19.40;99.90
23532;DHT22;11943;52.270;20.978;2022-07-21T02:30:36;19.40;99.90
23532;DHT22;11943;52.270;20.978;2022-07-21T02:33:01;19.50;99.90
23532;DHT22;11943;52.270;20.978;2022-07-21T02:35:27;19.50;99.90
23532;DHT22;11943;52.270;20.978;2022-07-21T02:37:53;19.50;99.90
23532;DHT22;11943;52.270;20.978;2022-07-21T02:40:18;19.50;99.90
23532;DHT22;11943;52.270;20.978;2022-07-21T02:42:44;19.50;99.90
23532;DHT22;11943;52.270;20.978;2022-07-21T02:45:10;19.50;99.90
23532;DHT22;11943;52.270;20.978;2022-07-21T02:47:57;19.40;99.90
23532;DHT22;11943;52.270;20.978;2022-07-21T02:50:24;19.40;99.90
23532;DHT22;11943;52.270;20.978;2022-07-21T02:52:50;19.40;99.90
23532;DHT22;11943;52.270;20.978;2022-07-21T02:55:18;19.30;99.90
23532;DHT22;11943;52.270;20.978;2022-07-21T02:57:44;19.30;99.90
23532;DHT22;11943;52.270;20.978;2022-07-21T03:00:10;19.30;99.90
23532;DHT22;11943;52.270;20.978;2022-07-21T03:02:36;19.30;99.90
23532;DHT22;11943;52.270;20.978;2022-07-21T03:05:03;19.30;99.90
23532;DHT22;11943;52.270;20.978;2022-07-21T03:07:28;19.30;99.90
23532;DHT22;11943;52.270;20.978;2022-07-21T03:09:54;19.20;99.90
23532;DHT22;11943;52.270;20.978;2022-07-21T03:12:20;19.20;99.90
23532;DHT22;11943;52.270;20.978;2022-07-21T03:14:45;19.30;99.90
23532;DHT22;11943;52.270;20.978;2022-07-21T03:17:11;19.40;99.90
23532;DHT22;11943;52.270;20.978;2022-07-21T03:19:36;19.40;99.90
23532;DHT22;11943;52.270;20.978;2022-07-21T03:22:02;19.40;99.90
23532;DHT22;11943;52.270;20.978;2022-07-21T03:24:28;19.40;99.90
23532;DHT22;11943;52.270;20.978;2022-07-21T03:26:55;19.40;99.90
23532;DHT22;11943;52.270;20.978;2022-07-21T03:29:21;19.40;99.90
23532;DHT22;11943;52.270;20.978;2022-07-21T03:31:47;19.40;99.90
23532;DHT22;11943;52.270;20.978;2022-07-21T03:34:12;19.30;99.90
23532;DHT22;11943;52.270;20.978;2022-07-21T03:36:38;19.40;99.90
23532;DHT22;11943;52.270;20.978;2022-07-21T03:39:03;19.40;99.90
23532;DHT22;11943;52.270;20.978;2022-07-21T03:41:29;19.40;99.90
23532;DHT22;11943;52.270;20.978;2022-07-21T03:43:55;19.40;99.90
23532;DHT22;11943;52.270;20.978;2022-07-21T03:46:20;19.40;99.90
23532;DHT22;11943;52.270;20.978;2022-07-21T03:48:46;19.50;99.90
23532;DHT22;11943;52.270;20.978;2022-07-21T03:51:11;19.50;99.90
23532;DHT22;11943;52.270;20.978;2022-07-21T03:53:37;19.50;99.90
23532;DHT22;11943;52.270;20.978;2022-07-21T03:56:03;19.60;99.90
23532;DHT22;11943;52.270;20.978;2022-07-21T03:58:29;19.70;99.90
23532;DHT22;11943;52.270;20.978;2022-07-21T04:00:54;19.80;99.90
23532;DHT22;11943;52.270;20.978;2022-07-21T04:03:20;19.80;99.90
23532;DHT22;11943;52.270;20.978;2022-07-21T04:05:45;19.90;99.90
23532;DHT22;11943;52.270;20.978;2022-07-21T04:08:12;19.90;99.30
23532;DHT22;11943;52.270;20.978;2022-07-21T04:10:39;20.00;99.00
23532;DHT22;11943;52.270;20.978;2022-07-21T04:13:07;20.00;98.40
23532;DHT22;11943;52.270;20.978;2022-07-21T04:15:34;20.10;98.20
23532;DHT22;11943;52.270;20.978;2022-07-21T04:17:59;20.10;98.10
23532;DHT22;11943;52.270;20.978;2022-07-21T04:20:26;20.20;96.70
23532;DHT22;11943;52.270;20.978;2022-07-21T04:22:52;20.30;95.80
23532;DHT22;11943;52.270;20.978;2022-07-21T04:25:18;20.30;96.80
23532;DHT22;11943;52.270;20.978;2022-07-21T04:27:45;20.30;95.50
23532;DHT22;11943;52.270;20.978;2022-07-21T04:30:16;20.40;95.20
23532;DHT22;11943;52.270;20.978;2022-07-21T04:32:43;20.40;95.00
23532;DHT22;11943;52.270;20.978;2022-07-21T04:35:09;20.50;93.80
23532;DHT22;11943;52.270;20.978;2022-07-21T04:37:35;20.50;94.40
23532;DHT22;11943;52.270;20.978;2022-07-21T04:40:02;20.50;94.30
23532;DHT22;11943;52.270;20.978;2022-07-21T04:42:28;20.60;94.00
23532;DHT22;11943;52.270;20.978;2022-07-21T04:44:53;20.60;92.30
23532;DHT22;11943;52.270;20.978;2022-07-21T04:47:19;20.70;92.00
23532;DHT22;11943;52.270;20.978;2022-07-21T04:49:45;20.90;91.50
23532;DHT22;11943;52.270;20.978;2022-07-21T04:52:10;20.90;91.30
23532;DHT22;11943;52.270;20.978;2022-07-21T04:54:36;21.00;91.30
23532;DHT22;11943;52.270;20.978;2022-07-21T04:57:01;21.10;90.80
23532;DHT22;11943;52.270;20.978;2022-07-21T04:59:32;21.30;90.10
23532;DHT22;11943;52.270;20.978;2022-07-21T05:01:58;21.60;89.30
23532;DHT22;11943;52.270;20.978;2022-07-21T05:04:25;21.70;86.60
23532;DHT22;11943;52.270;20.978;2022-07-21T05:06:51;21.90;85.70
23532;DHT22;11943;52.270;20.978;2022-07-21T05:09:16;22.10;85.30
23532;DHT22;11943;52.270;20.978;2022-07-21T05:11:42;22.10;85.20
23532;DHT22;11943;52.270;20.978;2022-07-21T05:14:07;22.30;83.60
23532;DHT22;11943;52.270;20.978;2022-07-21T05:16:33;22.70;82.80
23532;DHT22;11943;52.270;20.978;2022-07-21T05:18:59;23.10;79.90
23532;DHT22;11943;52.270;20.978;2022-07-21T05:21:24;23.40;77.20
23532;DHT22;11943;52.270;20.978;2022-07-21T05:23:50;23.90;75.50
23532;DHT22;11943;52.270;20.978;2022-07-21T05:26:15;24.20;71.60
23532;DHT22;11943;52.270;20.978;2022-07-21T05:28:41;24.70;73.20
23532;DHT22;11943;52.270;20.978;2022-07-21T05:31:07;25.20;68.60
23532;DHT22;11943;52.270;20.978;2022-07-21T05:33:34;25.70;65.10
23532;DHT22;11943;52.270;20.978;2022-07-21T05:35:59;26.20;62.80
23532;DHT22;11943;52.270;20.978;2022-07-21T05:38:25;26.50;62.20
23532;DHT22;11943;52.270;20.978;2022-07-21T05:40:51;26.90;61.00
23532;DHT22;11943;52.270;20.978;2022-07-21T05:43:16;27.10;61.10
23532;DHT22;11943;52.270;20.978;2022-07-21T05:45:42;27.20;58.20
23532;DHT22;11943;52.270;20.978;2022-07-21T05:48:07;27.30;57.30
23532;DHT22;11943;52.270;20.978;2022-07-21T05:50:33;27.00;56.90
23532;DHT22;11943;52.270;20.978;2022-07-21T05:52:59;26.40;55.90
23532;DHT22;11943;52.270;20.978;2022-07-21T05:55:25;26.20;55.80
23532;DHT22;11943;52.270;20.978;2022-07-21T05:57:50;26.50;56.50
23532;DHT22;11943;52.270;20.978;2022-07-21T06:00:16;26.30;55.90
23532;DHT22;11943;52.270;20.978;2022-07-21T06:02:46;26.80;57.60
23532;DHT22;11943;52.270;20.978;2022-07-21T06:05:12;26.80;55.70
23532;DHT22;11943;52.270;20.978;2022-07-21T06:07:39;27.20;55.40
23532;DHT22;11943;52.270;20.978;2022-07-21T06:10:05;26.70;55.20
23532;DHT22;11943;52.270;20.978;2022-07-21T06:12:32;26.20;55.60
23532;DHT22;11943;52.270;20.978;2022-07-21T06:14:57;26.70;55.90
23532;DHT22;11943;52.270;20.978;2022-07-21T06:17:23;26.80;55.70
23532;DHT22;11943;52.270;20.978;2022-07-21T06:19:49;26.90;56.40
23532;DHT22;11943;52.270;20.978;2022-07-21T06:22:15;27.30;54.50
23532;DHT22;11943;52.270;20.978;2022-07-21T06:24:40;27.60;54.90
23532;DHT22;11943;52.270;20.978;2022-07-21T06:27:06;27.30;54.30
23532;DHT22;11943;52.270;20.978;2022-07-21T06:29:32;27.10;55.60
23532;DHT22;11943;52.270;20.978;2022-07-21T06:31:58;27.00;55.10
23532;DHT22;11943;52.270;20.978;2022-07-21T06:34:23;27.20;56.90
23532;DHT22;11943;52.270;20.978;2022-07-21T06:36:49;26.50;55.60
23532;DHT22;11943;52.270;20.978;2022-07-21T06:39:14;26.20;55.70
23532;DHT22;11943;52.270;20.978;2022-07-21T06:41:40;25.60;55.50
23532;DHT22;11943;52.270;20.978;2022-07-21T06:44:06;25.40;57.70
23532;DHT22;11943;52.270;20.978;2022-07-21T06:46:33;25.20;57.60
23532;DHT22;11943;52.270;20.978;2022-07-21T06:48:58;25.10;57.90
23532;DHT22;11943;52.270;20.978;2022-07-21T06:51:24;25.20;59.30
23532;DHT22;11943;52.270;20.978;2022-07-21T06:53:49;25.10;58.70
23532;DHT22;11943;52.270;20.978;2022-07-21T06:56:17;24.80;58.80
23532;DHT22;11943;52.270;20.978;2022-07-21T06:58:42;25.00;59.30
23532;DHT22;11943;52.270;20.978;2022-07-21T07:01:08;24.90;58.70
23532;DHT22;11943;52.270;20.978;2022-07-21T07:03:34;24.90;59.40
23532;DHT22;11943;52.270;20.978;2022-07-21T07:06:00;25.00;59.70
23532;DHT22;11943;52.270;20.978;2022-07-21T07:08:26;25.10;59.60
23532;DHT22;11943;52.270;20.978;2022-07-21T07:10:51;25.30;59.70
23532;DHT22;11943;52.270;20.978;2022-07-21T07:13:17;25.30;59.80
23532;DHT22;11943;52.270;20.978;2022-07-21T07:15:43;25.10;59.40
23532;DHT22;11943;52.270;20.978;2022-07-21T07:18:09;25.30;60.80
23532;DHT22;11943;52.270;20.978;2022-07-21T07:20:34;25.30;60.80
23532;DHT22;11943;52.270;20.978;2022-07-21T07:23:00;25.20;60.40
23532;DHT22;11943;52.270;20.978;2022-07-21T07:25:26;25.30;60.50
23532;DHT22;11943;52.270;20.978;2022-07-21T07:27:51;25.20;61.00
23532;DHT22;11943;52.270;20.978;2022-07-21T07:30:18;25.60;60.80
23532;DHT22;11943;52.270;20.978;2022-07-21T07:32:44;25.70;60.50
23532;DHT22;11943;52.270;20.978;2022-07-21T07:35:13;25.60;59.70
23532;DHT22;11943;52.270;20.978;2022-07-21T07:37:41;25.50;60.20
23532;DHT22;11943;52.270;20.978;2022-07-21T07:40:10;25.80;63.10
23532;DHT22;11943;52.270;20.978;2022-07-21T07:42:37;26.00;60.60
23532;DHT22;11943;52.270;20.978;2022-07-21T07:45:04;26.30;59.40
23532;DHT22;11943;52.270;20.978;2022-07-21T07:47:30;26.30;59.10
23532;DHT22;11943;52.270;20.978;2022-07-21T07:49:56;26.30;59.00
23532;DHT22;11943;52.270;20.978;2022-07-21T07:52:22;26.00;58.40
23532;DHT22;11943;52.270;20.978;2022-07-21T07:54:47;26.30;59.10
23532;DHT22;11943;52.270;20.978;2022-07-21T07:57:13;26.50;58.10
23532;DHT22;11943;52.270;20.978;2022-07-21T07:59:39;26.50;58.10
23532;DHT22;11943;52.270;20.978;2022-07-21T08:02:04;26.30;58.50
23532;DHT22;11943;52.270;20.978;2022-07-21T08:04:30;26.50;58.80
23532;DHT22;11943;52.270;20.978;2022-07-21T08:06:56;26.70;60.20
23532;DHT22;11943;52.270;20.978;2022-07-21T08:09:22;26.90;57.30
23532;DHT22;11943;52.270;20.978;2022-07-21T08:11:48;27.00;56.90
23532;DHT22;11943;52.270;20.978;2022-07-21T08:14:16;26.60;56.40
23532;DHT22;11943;52.270;20.978;2022-07-21T08:16:42;26.60;56.10
23532;DHT22;11943;52.270;20.978;2022-07-21T08:19:08;27.00;57.50
23532;DHT22;11943;52.270;20.978;2022-07-21T08:21:33;27.30;56.60
23532;DHT22;11943;52.270;20.978;2022-07-21T08:24:00;26.90;54.40
23532;DHT22;11943;52.270;20.978;2022-07-21T08:26:26;26.80;53.60
23532;DHT22;11943;52.270;20.978;2022-07-21T08:28:56;26.80;52.10
23532;DHT22;11943;52.270;20.978;2022-07-21T08:31:23;27.00;52.70
23532;DHT22;11943;52.270;20.978;2022-07-21T08:33:50;27.20;54.70
23532;DHT22;11943;52.270;20.978;2022-07-21T08:36:16;27.50;53.20
23532;DHT22;11943;52.270;20.978;2022-07-21T08:38:42;27.80;53.30
23532;DHT22;11943;52.270;20.978;2022-07-21T08:41:08;28.10;53.90
23532;DHT22;11943;52.270;20.978;2022-07-21T08:43:34;27.80;51.40
23532;DHT22;11943;52.270;20.978;2022-07-21T08:46:00;27.50;52.00
23532;DHT22;11943;52.270;20.978;2022-07-21T08:48:27;27.40;52.10
23532;DHT22;11943;52.270;20.978;2022-07-21T08:50:55;27.60;53.50
23532;DHT22;11943;52.270;20.978;2022-07-21T08:53:21;27.70;54.40
23532;DHT22;11943;52.270;20.978;2022-07-21T08:55:46;28.00;51.10
23532;DHT22;11943;52.270;20.978;2022-07-21T08:58:12;28.00;51.00
23532;DHT22;11943;52.270;20.978;2022-07-21T09:00:41;28.00;50.20
23532;DHT22;11943;52.270;20.978;2022-07-21T09:03:24;28.10;50.20
23532;DHT22;11943;52.270;20.978;2022-07-21T09:06:11;27.90;51.40
23532;DHT22;11943;52.270;20.978;2022-07-21T09:11:26;28.10;51.00
23532;DHT22;11943;52.270;20.978;2022-07-21T09:16:44;28.20;50.40
23532;DHT22;11943;52.270;20.978;2022-07-21T09:21:44;28.10;50.00
23532;DHT22;11943;52.270;20.978;2022-07-21T09:24:13;28.40;51.70
23532;DHT22;11943;52.270;20.978;2022-07-21T09:26:59;28.40;51.70
23532;DHT22;11943;52.270;20.978;2022-07-21T09:29:26;28.70;50.60
23532;DHT22;11943;52.270;20.978;2022-07-21T09:31:51;28.90;50.20
23532;DHT22;11943;52.270;20.978;2022-07-21T09:34:17;28.80;49.80
23532;DHT22;11943;52.270;20.978;2022-07-21T09:36:57;28.60;50.50
23532;DHT22;11943;52.270;20.978;2022-07-21T09:39:46;28.50;49.80
23532;DHT22;11943;52.270;20.978;2022-07-21T09:42:20;28.80;50.90
23532;DHT22;11943;52.270;20.978;2022-07-21T09:44:49;29.10;50.60
23532;DHT22;11943;52.270;20.978;2022-07-21T09:47:17;29.40;48.50
23532;DHT22;11943;52.270;20.978;2022-07-21T09:49:43;29.10;47.60
23532;DHT22;11943;52.270;20.978;2022-07-21T09:54:44;29.40;48.70
23532;DHT22;11943;52.270;20.978;2022-07-21T09:57:10;29.60;48.30
23532;DHT22;11943;52.270;20.978;2022-07-21T09:59:36;29.40;48.50
23532;DHT22;11943;52.270;20.978;2022-07-21T10:02:02;29.30;48.50
23532;DHT22;11943;52.270;20.978;2022-07-21T10:04:28;28.90;49.00
23532;DHT22;11943;52.270;20.978;2022-07-21T10:06:55;29.00;49.70
23532;DHT22;11943;52.270;20.978;2022-07-21T10:09:22;28.70;50.00
23532;DHT22;11943;52.270;20.978;2022-07-21T10:11:47;28.90;50.20
23532;DHT22;11943;52.270;20.978;2022-07-21T10:14:13;29.10;50.70
23532;DHT22;11943;52.270;20.978;2022-07-21T10:16:39;28.90;49.20
23532;DHT22;11943;52.270;20.978;2022-07-21T10:19:17;28.70;49.80
23532;DHT22;11943;52.270;20.978;2022-07-21T10:22:08;28.70;51.20
23532;DHT22;11943;52.270;20.978;2022-07-21T10:24:35;28.90;51.70
23532;DHT22;11943;52.270;20.978;2022-07-21T10:27:10;29.30;49.70
23532;DHT22;11943;52.270;20.978;2022-07-21T10:29:48;29.40;48.60
23532;DHT22;11943;52.270;20.978;2022-07-21T10:32:15;29.60;48.20
23532;DHT22;11943;52.270;20.978;2022-07-21T10:34:41;29.50;47.80
23532;DHT22;11943;52.270;20.978;2022-07-21T10:37:08;29.50;49.10
23532;DHT22;11943;52.270;20.978;2022-07-21T10:39:34;29.60;48.20
23532;DHT22;11943;52.270;20.978;2022-07-21T10:41:59;29.50;49.20
23532;DHT22;11943;52.270;20.978;2022-07-21T10:49:46;29.00;49.40
23532;DHT22;11943;52.270;20.978;2022-07-21T10:55:14;29.50;49.20
23532;DHT22;11943;52.270;20.978;2022-07-21T10:58:15;29.70;49.10
23532;DHT22;11943;52.270;20.978;2022-07-21T11:00:48;29.80;48.10
23532;DHT22;11943;52.270;20.978;2022-07-21T11:08:32;29.90;47.00
23532;DHT22;11943;52.270;20.978;2022-07-21T11:21:58;30.20;46.70
23532;DHT22;11943;52.270;20.978;2022-07-21T11:24:25;30.30;47.30
23532;DHT22;11943;52.270;20.978;2022-07-21T11:27:02;30.00;46.80
23532;DHT22;11943;52.270;20.978;2022-07-21T11:29:29;30.10;46.20
23532;DHT22;11943;52.270;20.978;2022-07-21T11:31:55;30.30;46.90
23532;DHT22;11943;52.270;20.978;2022-07-21T11:34:22;30.60;47.80
23532;DHT22;11943;52.270;20.978;2022-07-21T11:36:58;30.60;46.60
23532;DHT22;11943;52.270;20.978;2022-07-21T11:39:24;30.70;45.60
23532;DHT22;11943;52.270;20.978;2022-07-21T11:41:49;30.50;46.90
23532;DHT22;11943;52.270;20.978;2022-07-21T11:44:25;30.40;46.70
23532;DHT22;11943;52.270;20.978;2022-07-21T11:46:56;30.40;46.40
23532;DHT22;11943;52.270;20.978;2022-07-21T11:49:22;30.60;46.30
23532;DHT22;11943;52.270;20.978;2022-07-21T11:52:03;30.70;46.50
23532;DHT22;11943;52.270;20.978;2022-07-21T11:54:34;30.90;46.00
23532;DHT22;11943;52.270;20.978;2022-07-21T11:57:03;31.10;45.30
23532;DHT22;11943;52.270;20.978;2022-07-21T11:59:30;31.20;45.60
23532;DHT22;11943;52.270;20.978;2022-07-21T12:02:05;31.30;44.90
23532;DHT22;11943;52.270;20.978;2022-07-21T12:04:35;31.40;46.10
23532;DHT22;11943;52.270;20.978;2022-07-21T12:07:03;31.20;45.30
23532;DHT22;11943;52.270;20.978;2022-07-21T12:09:30;31.00;44.90
23532;DHT22;11943;52.270;20.978;2022-07-21T12:11:56;30.70;44.50
23532;DHT22;11943;52.270;20.978;2022-07-21T12:14:45;30.80;45.90
23532;DHT22;11943;52.270;20.978;2022-07-21T12:17:11;30.90;46.40
23532;DHT22;11943;52.270;20.978;2022-07-21T12:19:37;30.90;45.20
23532;DHT22;11943;52.270;20.978;2022-07-21T12:22:03;31.00;46.80
23532;DHT22;11943;52.270;20.978;2022-07-21T12:24:53;31.10;45.30
23532;DHT22;11943;52.270;20.978;2022-07-21T12:27:19;30.90;45.50
23532;DHT22;11943;52.270;20.978;2022-07-21T12:29:46;31.10;45.30
23532;DHT22;11943;52.270;20.978;2022-07-21T12:32:12;31.10;44.90
23532;DHT22;11943;52.270;20.978;2022-07-21T12:34:51;31.20;46.80
23532;DHT22;11943;52.270;20.978;2022-07-21T12:37:17;31.20;45.40
23532;DHT22;11943;52.270;20.978;2022-07-21T12:39:43;31.20;44.60
23532;DHT22;11943;52.270;20.978;2022-07-21T12:42:35;31.20;45.70
23532;DHT22;11943;52.270;20.978;2022-07-21T12:45:12;31.30;45.50
23532;DHT22;11943;52.270;20.978;2022-07-21T12:47:38;31.10;46.10
23532;DHT22;11943;52.270;20.978;2022-07-21T12:50:06;30.60;45.70
23532;DHT22;11943;52.270;20.978;2022-07-21T12:52:32;31.00;47.20
23532;DHT22;11943;52.270;20.978;2022-07-21T12:54:58;31.10;46.10
23532;DHT22;11943;52.270;20.978;2022-07-21T12:57:31;31.30;45.80
23532;DHT22;11943;52.270;20.978;2022-07-21T12:59:58;31.40;45.50
23532;DHT22;11943;52.270;20.978;2022-07-21T13:02:25;31.40;46.70
23532;DHT22;11943;52.270;20.978;2022-07-21T13:04:51;31.60;46.30
23532;DHT22;11943;52.270;20.978;2022-07-21T13:07:17;31.40;45.30
23532;DHT22;11943;52.270;20.978;2022-07-21T13:09:43;31.40;46.80
23532;DHT22;11943;52.270;20.978;2022-07-21T13:12:11;31.70;47.30
23532;DHT22;11943;52.270;20.978;2022-07-21T13:14:37;31.20;45.10
23532;DHT22;11943;52.270;20.978;2022-07-21T13:17:02;31.30;46.00
23532;DHT22;11943;52.270;20.978;2022-07-21T13:19:28;31.50;45.90
23532;DHT22;11943;52.270;20.978;2022-07-21T13:21:54;31.20;45.30
23532;DHT22;11943;52.270;20.978;2022-07-21T13:24:19;31.40;47.20
23532;DHT22;11943;52.270;20.978;2022-07-21T13:26:45;31.50;46.10
23532;DHT22;11943;52.270;20.978;2022-07-21T13:29:10;31.60;45.40
23532;DHT22;11943;52.270;20.978;2022-07-21T13:31:36;31.70;45.50
23532;DHT22;11943;52.270;20.978;2022-07-21T13:34:06;31.80;45.70
23532;DHT22;11943;52.270;20.978;2022-07-21T13:36:35;31.60;44.80
23532;DHT22;11943;52.270;20.978;2022-07-21T13:39:04;31.50;45.50
23532;DHT22;11943;52.270;20.978;2022-07-21T13:41:30;31.60;46.50
23532;DHT22;11943;52.270;20.978;2022-07-21T13:43:57;31.80;45.60
23532;DHT22;11943;52.270;20.978;2022-07-21T13:46:23;31.80;45.90
23532;DHT22;11943;52.270;20.978;2022-07-21T13:48:49;31.60;43.50
23532;DHT22;11943;52.270;20.978;2022-07-21T13:51:16;31.80;44.80
23532;DHT22;11943;52.270;20.978;2022-07-21T13:53:44;31.90;45.70
23532;DHT22;11943;52.270;20.978;2022-07-21T13:56:11;31.80;44.80
23532;DHT22;11943;52.270;20.978;2022-07-21T13:58:37;31.70;45.20
23532;DHT22;11943;52.270;20.978;2022-07-21T14:01:03;31.60;45.00
23532;DHT22;11943;52.270;20.978;2022-07-21T14:03:29;31.40;46.20
23532;DHT22;11943;52.270;20.978;2022-07-21T14:05:54;31.40;46.10
23532;DHT22;11943;52.270;20.978;2022-07-21T14:08:20;31.40;45.80
23532;DHT22;11943;52.270;20.978;2022-07-21T14:10:46;31.60;45.50
23532;DHT22;11943;52.270;20.978;2022-07-21T14:13:12;31.60;45.30
23532;DHT22;11943;52.270;20.978;2022-07-21T14:15:39;31.60;45.30
23532;DHT22;11943;52.270;20.978;2022-07-21T14:18:04;31.50;45.00
23532;DHT22;11943;52.270;20.978;2022-07-21T14:20:30;31.60;44.80
23532;DHT22;11943;52.270;20.978;2022-07-21T14:22:56;31.60;45.50
23532;DHT22;11943;52.270;20.978;2022-07-21T14:25:22;31.80;46.90
23532;DHT22;11943;52.270;20.978;2022-07-21T14:27:50;32.00;45.70
23532;DHT22;11943;52.270;20.978;2022-07-21T14:30:17;31.80;44.70
23532;DHT22;11943;52.270;20.978;2022-07-21T14:32:43;32.00;46.70
23532;DHT22;11943;52.270;20.978;2022-07-21T14:35:09;31.80;44.50
23532;DHT22;11943;52.270;20.978;2022-07-21T14:37:35;31.90;44.50
23532;DHT22;11943;52.270;20.978;2022-07-21T14:40:02;31.80;44.80
23532;DHT22;11943;52.270;20.978;2022-07-21T14:42:28;31.80;45.50
23532;DHT22;11943;52.270;20.978;2022-07-21T14:44:54;31.80;45.70
23532;DHT22;11943;52.270;20.978;2022-07-21T14:47:20;31.90;45.70
23532;DHT22;11943;52.270;20.978;2022-07-21T14:49:45;32.00;45.30
23532;DHT22;11943;52.270;20.978;2022-07-21T14:52:11;31.80;45.70
23532;DHT22;11943;52.270;20.978;2022-07-21T14:54:36;31.80;45.50
23532;DHT22;11943;52.270;20.978;2022-07-21T14:57:03;31.80;44.80
23532;DHT22;11943;52.270;20.978;2022-07-21T14:59:30;31.80;45.80
23532;DHT22;11943;52.270;20.978;2022-07-21T15:01:55;31.80;45.90
23532;DHT22;11943;52.270;20.978;2022-07-21T15:04:21;31.80;45.80
23532;DHT22;11943;52.270;20.978;2022-07-21T15:06:48;31.90;45.40
23532;DHT22;11943;52.270;20.978;2022-07-21T15:09:14;31.80;44.60
23532;DHT22;11943;52.270;20.978;2022-07-21T15:11:39;31.70;45.10
23532;DHT22;11943;52.270;20.978;2022-07-21T15:14:05;31.50;46.00
23532;DHT22;11943;52.270;20.978;2022-07-21T15:16:30;31.60;47.20
23532;DHT22;11943;52.270;20.978;2022-07-21T15:18:56;31.70;46.30
23532;DHT22;11943;52.270;20.978;2022-07-21T15:21:22;31.60;45.00
23532;DHT22;11943;52.270;20.978;2022-07-21T15:23:47;31.60;45.70
23532;DHT22;11943;52.270;20.978;2022-07-21T15:26:13;31.60;46.80
23532;DHT22;11943;52.270;20.978;2022-07-21T15:28:39;31.40;45.50
23532;DHT22;11943;52.270;20.978;2022-07-21T15:31:04;31.10;45.30
23532;DHT22;11943;52.270;20.978;2022-07-21T15:33:30;31.10;46.90
23532;DHT22;11943;52.270;20.978;2022-07-21T15:35:55;31.30;46.90
23532;DHT22;11943;52.270;20.978;2022-07-21T15:38:22;31.30;46.90
23532;DHT22;11943;52.270;20.978;2022-07-21T15:40:48;31.40;47.30
23532;DHT22;11943;52.270;20.978;2022-07-21T15:43:14;31.40;45.30
23532;DHT22;11943;52.270;20.978;2022-07-21T15:45:40;31.30;46.00
23532;DHT22;11943;52.270;20.978;2022-07-21T15:48:07;31.30;46.90
23532;DHT22;11943;52.270;20.978;2022-07-21T15:50:33;31.30;48.20